Hoosier Classic - Hand In. Group 1,2,3,4,5

Station: INVENTORY - T Race

Distance: 10 Miles

Release: 18-Apr-2017 02:00

Weather Release:    Arrival:

Wind at Release:     Wind at Arrival:

Temp at Release: °    Temp at Arrival: °

Lofts: 292

Birds: 1442

Clocked: 783

Good Luck to Everyone!
Drops Pos Breeder Pigeon Name Color Sex Ent Arrival Speed To Win Eligible Op 1Op 2
301 Da-Dong - WI 0331-AU17-RAC BB H 1 17:48:51.10 18.549 02:46:18 Yes
302 Jones Family Loft - TX 0742-AU17-KJ BCH H 2 17:49:09.20 18.543 02:46:36 Yes
303 Sandstrom Brothers Loft - MN 0723-AU17-SBL BCPD H 3 17:49:26.00 18.537 02:46:55 Yes
304 Eastern Pearl Loft - VA 0264-AU17-EPL 🈚️量 264 BB C 2 17:49:45.90 18.531 02:47:13 Yes
305 H & H Loft - TX 6903-AU17-VK BB C 6 17:50:00.20 18.526 02:47:28 Lost
306 H & H Loft - TX 6912-AU17-VK BCH H 7 17:50:23.40 18.519 02:47:50 Yes
307 America Loft - IN 19200-AU17-ARPU BB C 1 17:50:42.80 18.512 02:48:11 Yes
308 Daehn/Miele - FL 0208-AU17-NWFI 217 X 790 BB H 2 17:50:57.00 18.508 02:48:24 Yes
309 Greek Connection - SC 0304-AU17-GREE SUPERCRACK BWF C 1 17:51:12.50 18.503 02:48:39 Yes
310 Pleasant Task Farm - PA 0706-AU17-PTF BBSP C 1 17:51:29.60 18.497 02:48:58 Lost
311 Tiwi Pigeons - CA 8722-AU17-JEDD Precious Tiwi BSP C 3 17:51:46.90 18.492 02:49:13 Yes
312 Daehn/Miele - FL 0214-AU17-NWFI 1633 X 588 BB H 3 17:52:00.40 18.487 02:49:29 Yes
313 B Q E Loft - NY 0242-IF17-FVC Brooklyn queens express BB C 2 17:52:20.40 18.481 02:49:47 Missing
314 A-Lo-Loft - NY 1004-AU17-FOYS ☯🐌🐌🐌🐌☯️ CHPD H 1 17:52:54.20 18.470 02:50:21 Yes
315 Ken Easley & Son Racing - NM 5022-AU17-EASL 4443 x 83017 BB H 7 17:53:09.40 18.465 02:50:37 Yes
316 B Q E Loft - NY 0241-IF17-FVC Yardbird BB H 3 17:53:33.80 18.457 02:51:01 Missing
317 Book & Van Wingerden - AZ 7019-AU17-BOOK BB H 6 17:54:04.10 18.447 02:51:32 Yes
318 Racine Jun Xiao - WI 0536-AU17-RAC BB H 3 17:54:16.90 18.443 02:51:45 Yes
319 - 0128-AU17-RAR 4 17:54:32.10 18.438 02:52:00
320 Nanez Family Lofts - WI 4056-AU17-NFL BB C 8 17:54:47.20 18.433 02:52:16 Yes
321 Malloy Flying Loft - TX 0116-AU17-MALL BB H 2 17:55:07.90 18.427 02:52:35 Lost
322 Eastern Pearl Loft - VA 0202-AU17-EPL 🈚️量 202 BBCH C 3 17:55:34.40 18.418 02:53:03 Lost
323 Kolvenbag & Son - PA 1109-IF17-KOLV BCH H 8 17:55:59.70 18.410 02:53:28 Yes
324 Racine Jun Xiao - WI 0523-AU17-RAC BB H 4 17:56:14.40 18.405 02:53:43 Lost
325 John Fukumoto - HI 0311-AU17-HAWN BB C 5 17:56:29.60 18.401 02:53:56 Yes
326 Two-Be-Won - NV 17109-AU17-TWOB See you later BB H 7 17:56:43.70 18.396 02:54:11 Yes
327 Book & Van Wingerden - AZ 7017-AU17-BOOK VM Flying Fortress BB C 7 17:57:07.80 18.388 02:54:36 Yes
328 Racine Jun Xiao - WI 0509-AU17-RAC BSP H 5 17:57:26.10 18.382 02:54:55 Yes
329 Paul Byrski - WI 2567-AU17-GW BB C 4 17:57:40.30 18.378 02:55:07 Lost
330 Midwest Loft Peter - WI 0667-AU17-MIDW 667 Deep BCH C 2 17:57:58.50 18.372 02:55:26 Lost
331 Debbie Ganus - IN 0319-AU17-GFL BB H 8 17:58:14.60 18.367 02:55:42 Missing
332 J H Z Family Loft - FL 0014-AU17-JHZ BB C 1 17:58:56.40 18.354 02:56:23 Missing
333 Nanez Family Lofts - WI 4020-AU17-NFL BB C 9 17:59:15.80 18.347 02:56:44 Yes
334 Eastern Pearl Loft - VA 0263-AU17-EPL 🈚️量 263 BWF H 4 17:59:48.80 18.337 02:57:16 Yes
335 Baldwin & Tilson - NC 7007-AU17-TENT BWF C 2 18:00:06.30 18.331 02:57:35 Lost
336 Alonso Loft - FL 0505-AU17-ALON BWF H 4 18:00:20.30 18.327 02:57:47 Yes
337 Daehn/Miele - FL 0203-AU17-NWFI 973 X 257 BBWF H 4 18:00:45.50 18.319 02:58:12 Yes
338 Daehn/Miele - FL 0207-AU17-NWFI BB C 5 18:01:06.60 18.312 02:58:34 Lost
339 Irishsyndicatelofts - AZ 7930-IF17-IRIS BB C 10 18:01:22.10 18.307 02:58:50 Yes
340 Drama Queen Loft - TX 0389-AU17-GCI BB H 4 18:01:38.60 18.302 02:59:06 Lost
341 B Q E Loft - NY 0225-IF17-FVC Espada BSP C 4 18:01:58.10 18.296 02:59:25 Yes
342 Arandas Loft - TX 14296-AU17-ARPU BB H 2 18:02:14.10 18.291 02:59:41 Yes
343 Menyuam Pom Loft - MN 12815-AU17-ARPU Zaaj BB H 1 18:02:34.10 18.284 03:00:03 Yes
344 Aubrina & Pappy - IN 0909-AU17-VK BB H 7 18:03:12.00 18.272 03:00:41 Lost
345 ! ! ! S P E E D S - R A C E R S ! ! ! - FL 2145-AU17-SCHE The Terribles Twins BBSP C 4 18:03:30.70 18.267 03:00:57 Lost
346 Me Fui Vega Loft - FL 0046-AU17-MEFU BB H 2 18:03:45.00 18.262 03:01:12 Lost
347 Daehn/Miele - FL 0209-AU17-NWFI 217 X 790 BWF C 6 18:04:05.60 18.255 03:01:35 Missing
348 Garry Family Loft - CA 0003-AU17-GARY BB H 2 18:04:22.00 18.250 03:01:50 Yes
349 J & M Partridge Loft - CA 0531-AU17-PASO BB H 2 18:04:46.40 18.243 03:02:13 Missing
350 Genesis Syndicate Loft - AZ 0259-AU17-SYN BB H 8 18:05:28.10 18.229 03:02:57 Yes
351 America Loft - IN 19199-AU17-ARPU BB H 2 18:05:33.20 18.228 03:03:00 Yes
352 Elton Dinga - TX 12031-AU17-AA Klaas BCH H 2 18:05:49.20 18.223 03:03:16 Yes
353 Erika's Family Loft - NV 0716-AU17-ERIK BB H 1 18:05:59.50 18.220 03:03:26 Yes
354 Flying Pilgrims - OR 38408-AU17-ARPU Wind Fighter BCH H 1 18:06:23.20 18.212 03:03:51 Yes
355 A P C Loft - TX 17069-AU17-APC GRIZ H 4 18:13:33.50 18.078 03:11:01 Yes
356 Andy Skwiat - IN 0009-AU17-ANDY Medusa BB H 10 18:13:51.30 18.073 03:11:17 Yes
357 Furia - FL 0010-AU17-FURI BSP H 1 18:14:09.40 18.067 03:11:36 Missing
358 Garcia Loft 2 - IN 19139-AU17-ARPU Yohana H 1 18:14:25.20 18.062 03:11:53 Lost
359 A F L - GA 0105-AU17-AFL ,,LITTLE JOE'' BBWF C 4 18:14:46.40 18.055 03:12:15 Lost
360 Sandstrom Brothers Loft - MN 0704-AU17-SBL BCH H 4 18:15:10.70 18.048 03:12:38 Missing
361 Gibara Loft - FL 2624-AU17-HRPC BCH H 2 18:15:42.10 18.038 03:13:10 Yes
362 Drama Queen Loft - TX 0371-AU17-GCI BBWF H 5 18:15:58.80 18.033 03:13:27 Lost
363 Mels Loft - NY 0009-IF17-MTFL "LIGHTING LEP" BB H 2 18:16:41.20 18.020 03:14:09 Lost
364 Racine Jun Xiao - WI 0530-AU17-RAC BB H 6 18:16:59.80 18.014 03:14:28 Yes
365 Eb Gentry Loft - NV 13399-AU17-JEDD Ameilia BB H 1 18:17:20.10 18.008 03:14:48 Yes
366 Hutchins/Milner - TX 0035-AU17-HUTC BB H 3 18:17:39.60 18.002 03:15:08 Lost
367 Kowkow Family - IL 0220-AU17-BFS BB H 1 18:18:00.50 17.996 03:15:27 Yes
368 Warren Loft - NE 0014-AU17-WARR BBWF H 5 18:18:19.70 17.990 03:15:47 Yes
369 A F L - GA 0125-AU17-AFL ,,SOPHIA'' BB H 5 18:18:37.80 17.984 03:16:06 Yes
370 Tiwi Pigeons - CA 8760-AU17-JEDD Tiwi Angel BCH H 4 18:18:57.30 17.978 03:16:26 Yes
371 Jones Family & Gwp Macaloney - TX 7087-AU17-JFL DCH C 2 18:19:17.40 17.972 03:16:45 Yes
372 Narvaez Loft - IN 17264-AU17-JEDD BCH H 1 18:19:36.40 17.966 03:17:05 Yes
373 Eastern Pearl Loft - VA 0250-AU17-EPL 🈚️量 250 BB H 5 18:19:59.10 17.959 03:17:28 Lost
374 Sandstrom Brothers Loft - MN 0724-AU17-SBL BCWF H 5 18:20:22.90 17.952 03:17:51 Yes
375 Any Given Day Quest - TX 17060-AU17-AGD BB C 6 18:20:39.30 17.947 03:18:07 Lost
376 Jim & Jimmy - WI 3616-AU17-GBW Little Emma BCH H 4 18:21:19.00 17.935 03:18:47 Yes
377 M & Y Connection - MI 0032-AU17-LDL "White Tail's Pride" BB H 4 18:21:45.50 17.927 03:19:13 Yes
378 Ganus Family Loft - IN 0750-AU17-GFL BB H 8 18:22:10.00 17.920 03:19:36 Yes
379 Patrick Kwan - CA 0713-AU17-KWAN BB H 3 18:22:34.10 17.912 03:20:02 Yes
380 A P C Loft - TX 17020-AU17-APC BB C 5 18:23:01.40 17.904 03:20:29 Yes
381 Warren Loft - NE 0023-AU17-WARR BB H 6 18:23:26.40 17.896 03:20:55 Yes
382 Orozco's Loft - MI 0031-AU17-OROZ BCH H 8 18:23:52.40 17.888 03:21:21 Missing
383 A P C Loft - TX 17040-AU17-APC BB C 6 18:24:14.50 17.882 03:21:41 Lost
384 Furia - FL 0007-AU17-FURI WFL C 2 18:24:33.10 17.876 03:22:01 Yes
385 One Direction Loft - CA 2292-AU17-JEDD BCWF H 2 18:24:56.10 17.869 03:22:24 Lost
386 Malloy Flying Loft - TX 0118-AU17-MALL BB H 3 18:25:15.10 17.863 03:22:44 Yes
387 A P C Loft - TX 17014-AU17-APC CH H 7 18:26:03.60 17.849 03:23:30 Yes
388 Blue Agave - MI 2000-AU17-BLUE BCH H 1 18:26:32.10 17.840 03:24:00 Yes
389 Andy Skwiat - IN 0022-AU17-ANDY BB H 11 18:26:51.70 17.834 03:24:20 Yes
390 Eastern Pearl Loft - VA 0246-AU17-EPL 🈚️量 246 BB C 6 18:27:08.60 17.829 03:24:37 Lost
391 K T Loft - IN 0202-AU17-KT BB H 6 18:27:30.50 17.823 03:24:57 Lost
392 Daehn/Miele - FL 0202-AU17-NWFI Rw X 419 BB C 7 18:27:45.30 17.818 03:25:13 Yes
393 Eastern Pearl Loft - VA 0247-AU17-EPL 🈚️量 247 BB C 7 18:28:46.80 17.800 03:26:13 Yes
394 Fassio Loft - UT 0515-AU17-SLI BB H 2 18:29:06.30 17.794 03:26:33 Yes
395 Southern Belle - GA 0001-AU17-NEA BB H 2 18:29:29.70 17.787 03:26:57 Yes
396 Genesis Syndicate Loft - AZ 0255-AU17-SYN BB H 9 18:29:45.90 17.782 03:27:13 Yes
397 Warren Loft - NE 0044-AU17-WARR BB C 7 18:30:03.80 17.777 03:27:30 Yes
398 Book & Van Wingerden - AZ 7016-AU17-BOOK BWF H 8 18:30:24.60 17.770 03:27:53 Missing
399 H & H Loft - TX 6917-AU17-VK BB H 8 18:30:42.20 17.765 03:28:10 Missing
400 Speed Loft - MN 0512-AU17-ROYA BB C 2 18:35:29.10 17.680 03:32:56 Lost

There are 1110 bird records

Note: These Race Results are unofficial and subject to change until verified by the Race Committee and declared final.